Time;durP1;ratioP1;P1;durP2;ratioP2;P2;SDS_P1;SDS_P2;PMS_P1;PMS_P2;Temp;Humidity;BMP_temperature;BMP_pressure;BME280_temperature;BME280_humidity;BME280_pressure;Samples;Min_cycle;Max_cycle;Signal;HPM_P1;HPM_P2
2023/01/30 00:02:11;;;;;;;36.78;22.05;;;-0.40;97.30;;;;;;5053375;28;20116;-68
2023/01/30 00:04:37;;;;;;;36.80;21.83;;;-0.40;97.20;;;;;;5051488;28;20412;-68
2023/01/30 00:07:03;;;;;;;41.28;23.25;;;-0.40;97.30;;;;;;5052820;28;20033;-67
2023/01/30 00:09:28;;;;;;;38.03;21.98;;;-0.50;97.40;;;;;;5052288;28;20115;-68
2023/01/30 00:11:54;;;;;;;38.22;22.90;;;-0.50;97.40;;;;;;5069822;28;20027;-68
2023/01/30 00:14:19;;;;;;;40.20;22.88;;;-0.50;97.70;;;;;;5072699;28;20024;-68
2023/01/30 00:16:45;;;;;;;40.95;21.95;;;-0.50;97.70;;;;;;5072696;28;20078;-68
2023/01/30 00:19:11;;;;;;;38.05;22.70;;;-0.60;97.70;;;;;;5072762;28;20466;-68
2023/01/30 00:21:36;;;;;;;37.95;22.42;;;-0.60;97.90;;;;;;5072422;28;20032;-68
2023/01/30 00:24:02;;;;;;;34.80;21.40;;;-0.60;98.10;;;;;;5072647;28;20029;-68
2023/01/30 00:26:28;;;;;;;37.90;22.77;;;-0.60;98.10;;;;;;5072325;28;20035;-73
2023/01/30 00:28:53;;;;;;;32.78;20.45;;;-0.60;98.00;;;;;;5072483;28;20036;-68
2023/01/30 00:31:19;;;;;;;38.30;22.90;;;-0.70;98.10;;;;;;5072311;28;20082;-68
2023/01/30 00:33:45;;;;;;;42.25;23.02;;;-0.70;98.40;;;;;;5072183;28;20025;-68
2023/01/30 00:36:10;;;;;;;35.38;22.00;;;-0.70;98.50;;;;;;5072395;28;20379;-68
2023/01/30 00:38:36;;;;;;;35.72;21.38;;;-0.70;98.70;;;;;;5072171;28;20036;-68
2023/01/30 00:41:02;;;;;;;38.63;22.30;;;-0.70;99.10;;;;;;5072610;28;20048;-67
2023/01/30 00:49:07;;;;;;;39.47;22.73;;;-0.60;99.90;;;;;;5072108;28;20065;-68
2023/01/30 00:51:33;;;;;;;37.50;22.05;;;-0.60;99.90;;;;;;5071814;28;20041;-68
2023/01/30 00:53:59;;;;;;;35.97;21.98;;;-0.60;99.90;;;;;;5072551;28;20031;-68
2023/01/30 00:56:24;;;;;;;37.58;20.88;;;-0.60;99.90;;;;;;5072442;28;20028;-68
2023/01/30 00:58:50;;;;;;;41.58;22.60;;;-0.60;99.90;;;;;;5071950;28;20029;-67
2023/01/30 01:01:16;;;;;;;40.50;22.70;;;-0.60;99.90;;;;;;5071918;28;20024;-67
2023/01/30 01:03:42;;;;;;;39.33;22.20;;;-0.60;99.90;;;;;;5074136;28;20025;-67
2023/01/30 01:06:08;;;;;;;35.50;21.23;;;-0.60;99.90;;;;;;5072465;28;20056;-66
2023/01/30 01:08:33;;;;;;;37.20;21.27;;;-0.60;99.90;;;;;;5071864;28;20488;-68
2023/01/30 01:11:00;;;;;;;35.90;20.20;;;-0.60;99.90;;;;;;5072235;28;20040;-67
2023/01/30 01:13:25;;;;;;;37.08;21.10;;;-0.50;99.90;;;;;;5075280;28;20514;-66
2023/01/30 01:15:51;;;;;;;37.22;21.17;;;-0.60;99.90;;;;;;5075332;28;20238;-67
2023/01/30 01:18:16;;;;;;;38.58;19.75;;;-0.50;99.90;;;;;;5075648;28;20032;-67
2023/01/30 01:20:42;;;;;;;32.65;20.08;;;-0.50;99.90;;;;;;5075553;28;20029;-67
2023/01/30 01:23:09;;;;;;;33.17;20.75;;;-0.50;99.90;;;;;;5075575;28;20017;-67
2023/01/30 01:25:35;;;;;;;33.05;19.90;;;-0.40;99.90;;;;;;5075226;28;20442;-68
2023/01/30 01:28:00;;;;;;;30.45;19.20;;;-0.40;99.90;;;;;;5075510;28;20108;-68
2023/01/30 01:30:26;;;;;;;33.45;20.38;;;-0.40;99.90;;;;;;5074628;28;20139;-67
2023/01/30 01:32:52;;;;;;;34.03;20.17;;;-0.40;99.90;;;;;;5075215;28;20039;-68
2023/01/30 01:35:18;;;;;;;33.08;19.35;;;-0.30;99.90;;;;;;5075497;28;20039;-68
2023/01/30 01:37:44;;;;;;;34.15;20.48;;;-0.30;99.90;;;;;;5075342;28;20025;-66
2023/01/30 01:43:13;;;;;;;29.40;17.27;;;-0.30;99.90;;;;;;5075429;28;20492;-68
2023/01/30 01:45:38;;;;;;;34.22;20.00;;;-0.20;99.90;;;;;;5074736;28;20401;-68
2023/01/30 01:48:31;;;;;;;33.75;19.92;;;-0.20;99.90;;;;;;5083436;28;20024;-68
2023/01/30 01:51:02;;;;;;;32.60;19.38;;;-0.20;99.90;;;;;;5079333;28;20040;-67
2023/01/30 01:53:33;;;;;;;33.47;18.95;;;-0.20;99.90;;;;;;5075348;28;20039;-67
2023/01/30 01:56:00;;;;;;;31.45;19.10;;;-0.20;99.90;;;;;;5075016;28;20025;-67
2023/01/30 01:58:34;;;;;;;32.63;19.30;;;-0.20;99.90;;;;;;5075014;28;20117;-67
2023/01/30 02:01:00;;;;;;;34.97;18.98;;;-0.10;99.90;;;;;;5075150;28;20139;-67
2023/01/30 02:03:29;;;;;;;32.95;18.95;;;-0.10;99.90;;;;;;5074998;28;20032;-66
2023/01/30 02:05:58;;;;;;;31.10;19.27;;;-0.10;99.90;;;;;;5074876;28;20029;-67
2023/01/30 02:08:33;;;;;;;33.15;18.98;;;-0.10;99.90;;;;;;5074978;28;20056;-66
2023/01/30 02:11:06;;;;;;;32.35;18.50;;;0.00;99.90;;;;;;5074440;28;20033;-67
2023/01/30 02:13:31;;;;;;;26.85;17.10;;;0.00;99.90;;;;;;5074676;28;20027;-66
2023/01/30 02:16:00;;;;;;;32.83;19.15;;;0.00;99.90;;;;;;5074137;28;20029;-68
2023/01/30 02:18:28;;;;;;;31.60;18.30;;;0.10;99.90;;;;;;5074461;28;20028;-68
2023/01/30 02:21:10;;;;;;;28.13;17.05;;;0.10;99.90;;;;;;5073049;28;20028;-68
2023/01/30 02:23:36;;;;;;;30.00;18.48;;;0.10;99.90;;;;;;5074679;28;20481;-73
2023/01/30 02:26:23;;;;;;;29.27;17.83;;;0.20;99.90;;;;;;5074616;28;20025;-68
2023/01/30 02:28:51;;;;;;;27.60;17.80;;;0.20;99.90;;;;;;5073967;28;20465;-68
2023/01/30 02:31:26;;;;;;;30.52;17.95;;;0.20;99.90;;;;;;5074251;28;20035;-68
2023/01/30 02:34:26;;;;;;;29.45;18.45;;;0.30;99.90;;;;;;5074401;28;20372;-68
2023/01/30 02:37:11;;;;;;;30.20;18.17;;;0.30;99.90;;;;;;5059307;28;20039;-68
2023/01/30 02:40:07;;;;;;;29.83;17.50;;;0.30;99.90;;;;;;5072719;28;20089;-66
2023/01/30 02:42:59;;;;;;;27.23;16.20;;;0.40;99.90;;;;;;5074071;28;20481;-68
2023/01/30 02:45:40;;;;;;;26.88;17.23;;;0.40;99.90;;;;;;5073508;28;20032;-68
2023/01/30 02:48:12;;;;;;;26.45;16.80;;;0.50;99.90;;;;;;5074160;28;20162;-68
2023/01/30 02:50:48;;;;;;;27.20;16.23;;;0.50;99.90;;;;;;5073788;28;20115;-66
2023/01/30 02:53:14;;;;;;;27.27;15.98;;;0.50;99.90;;;;;;5074155;28;20445;-66
2023/01/30 02:55:41;;;;;;;26.77;16.60;;;0.60;99.90;;;;;;5073376;28;20132;-67
2023/01/30 02:58:08;;;;;;;25.63;15.27;;;0.60;99.60;;;;;;5074007;28;20028;-68
2023/01/30 03:00:44;;;;;;;24.88;15.68;;;0.70;99.30;;;;;;5073939;28;20043;-67
2023/01/30 03:03:19;;;;;;;25.80;15.32;;;0.70;99.00;;;;;;5074047;28;20107;-68
2023/01/30 03:06:19;;;;;;;24.10;15.40;;;0.70;98.90;;;;;;5073418;28;20024;-68
2023/01/30 03:09:10;;;;;;;24.65;14.98;;;0.80;98.60;;;;;;5073352;28;20032;-67
2023/01/30 03:12:09;;;;;;;24.85;14.98;;;0.80;98.70;;;;;;5075985;28;20413;-67
2023/01/30 03:14:48;;;;;;;24.50;14.98;;;0.80;98.30;;;;;;5073763;28;20044;-68
2023/01/30 03:17:17;;;;;;;25.52;15.38;;;0.70;98.40;;;;;;5073688;28;20104;-67
2023/01/30 03:19:42;;;;;;;24.95;15.27;;;0.80;98.30;;;;;;5072868;28;20055;-66
2023/01/30 03:22:08;;;;;;;24.52;15.00;;;0.80;98.10;;;;;;5073250;28;20021;-66
2023/01/30 03:24:34;;;;;;;25.05;15.35;;;0.80;98.00;;;;;;5073516;28;20389;-66
2023/01/30 03:27:07;;;;;;;25.02;14.75;;;0.80;98.00;;;;;;5073006;28;20226;-66
2023/01/30 03:29:34;;;;;;;23.92;14.63;;;0.80;97.80;;;;;;5073517;28;20492;-66
2023/01/30 03:31:59;;;;;;;24.20;14.80;;;0.80;97.70;;;;;;5072823;28;20107;-67
2023/01/30 03:34:25;;;;;;;23.85;15.18;;;0.90;97.50;;;;;;5073414;28;20139;-67
2023/01/30 03:36:51;;;;;;;27.40;15.70;;;0.80;97.70;;;;;;5072390;28;20055;-67
2023/01/30 03:39:16;;;;;;;24.63;14.88;;;0.80;97.80;;;;;;5072994;28;20060;-67
2023/01/30 03:41:42;;;;;;;23.20;14.45;;;0.80;97.80;;;;;;5073039;28;20121;-72
2023/01/30 03:44:08;;;;;;;24.00;15.10;;;0.80;97.60;;;;;;5073077;28;20047;-67
2023/01/30 03:46:33;;;;;;;24.90;15.80;;;0.80;97.50;;;;;;5073084;28;20028;-67
2023/01/30 03:48:59;;;;;;;24.08;14.05;;;0.80;97.60;;;;;;5072630;28;20024;-67
2023/01/30 03:51:25;;;;;;;26.83;15.18;;;0.90;97.50;;;;;;5073023;28;20074;-67
2023/01/30 03:53:50;;;;;;;24.35;15.25;;;0.90;97.10;;;;;;5072270;28;20032;-67
2023/01/30 03:56:16;;;;;;;23.75;14.30;;;0.90;97.20;;;;;;5073057;28;20033;-67
2023/01/30 03:58:42;;;;;;;23.83;14.50;;;1.00;96.90;;;;;;5072921;28;20107;-67
2023/01/30 04:01:07;;;;;;;26.10;15.00;;;1.00;96.70;;;;;;5072534;28;20032;-67
2023/01/30 04:03:33;;;;;;;23.00;14.52;;;0.90;96.70;;;;;;5072898;28;20032;-66
2023/01/30 04:05:59;;;;;;;23.65;14.95;;;1.00;96.50;;;;;;5072437;28;20115;-66
2023/01/30 04:08:24;;;;;;;24.13;14.85;;;1.00;96.40;;;;;;5072671;28;20020;-67
2023/01/30 04:10:50;;;;;;;23.02;14.23;;;1.00;96.20;;;;;;5072322;28;20128;-67
2023/01/30 04:13:16;;;;;;;25.70;14.93;;;1.10;96.00;;;;;;5072705;28;20031;-67
2023/01/30 04:15:41;;;;;;;23.05;15.02;;;1.10;95.90;;;;;;5072420;28;20028;-67
2023/01/30 04:18:07;;;;;;;22.40;13.20;;;1.10;95.70;;;;;;5072576;28;20381;-66
2023/01/30 04:20:33;;;;;;;24.75;14.77;;;1.10;95.70;;;;;;5072830;28;20389;-67
2023/01/30 04:22:58;;;;;;;24.65;15.23;;;1.10;95.60;;;;;;5072098;28;20040;-67
2023/01/30 04:25:24;;;;;;;24.00;14.73;;;1.10;95.50;;;;;;5072619;28;20025;-67
2023/01/30 04:27:50;;;;;;;23.40;14.93;;;1.10;95.50;;;;;;5072189;28;20028;-68
2023/01/30 04:30:15;;;;;;;24.90;15.25;;;1.10;95.60;;;;;;5072673;28;20389;-66
2023/01/30 04:32:41;;;;;;;23.73;15.13;;;1.10;95.60;;;;;;5072827;28;20492;-66
2023/01/30 04:35:07;;;;;;;22.73;14.13;;;1.20;95.50;;;;;;5079078;28;20032;-66
2023/01/30 04:37:33;;;;;;;26.00;15.32;;;1.20;95.40;;;;;;5076410;28;20039;-66
2023/01/30 04:39:58;;;;;;;23.95;14.32;;;1.10;95.50;;;;;;5072403;28;20053;-67
2023/01/30 04:42:24;;;;;;;26.05;14.65;;;1.20;95.50;;;;;;5072582;28;20468;-66
2023/01/30 04:44:49;;;;;;;25.17;15.07;;;1.20;95.30;;;;;;5073447;28;20036;-67
2023/01/30 04:47:16;;;;;;;26.08;14.98;;;1.20;95.40;;;;;;5073474;28;20028;-66
2023/01/30 04:49:42;;;;;;;27.33;15.65;;;1.10;95.30;;;;;;5076416;28;20044;-67
2023/01/30 04:52:07;;;;;;;23.85;14.77;;;1.10;95.50;;;;;;5075116;28;20483;-66
2023/01/30 04:54:33;;;;;;;26.40;15.35;;;1.10;95.70;;;;;;5076713;28;20036;-66
2023/01/30 04:56:59;;;;;;;27.27;15.52;;;1.10;95.80;;;;;;5076581;28;20036;-66
2023/01/30 04:59:25;;;;;;;26.38;15.60;;;1.00;95.90;;;;;;5076355;28;20036;-68
2023/01/30 05:01:50;;;;;;;25.60;16.58;;;1.00;95.60;;;;;;5075284;28;20457;-66
2023/01/30 05:04:16;;;;;;;27.92;15.43;;;1.00;95.30;;;;;;5079409;28;20029;-67
2023/01/30 05:06:42;;;;;;;24.35;15.13;;;1.00;95.60;;;;;;5078727;28;20064;-67
2023/01/30 05:09:07;;;;;;;28.10;16.38;;;1.00;96.00;;;;;;5054496;28;20131;-67
2023/01/30 05:11:33;;;;;;;25.83;16.13;;;1.10;95.90;;;;;;5056353;28;20112;-67
2023/01/30 05:13:59;;;;;;;24.40;15.18;;;1.10;96.00;;;;;;5055595;28;20504;-69
2023/01/30 05:16:25;;;;;;;26.33;15.23;;;1.20;95.90;;;;;;5056356;28;20112;-68
2023/01/30 05:18:51;;;;;;;27.90;16.15;;;1.20;95.70;;;;;;5055848;28;20425;-68
2023/01/30 05:21:19;;;;;;;24.98;14.20;;;1.20;95.60;;;;;;5055762;28;20032;-68
2023/01/30 05:23:45;;;;;;;27.65;15.30;;;1.20;95.40;;;;;;5055904;28;20100;-67
2023/01/30 05:26:12;;;;;;;25.60;15.68;;;1.30;95.20;;;;;;5055758;28;20029;-67
2023/01/30 05:28:38;;;;;;;24.60;15.10;;;1.30;95.20;;;;;;5055533;28;20040;-67
2023/01/30 05:31:12;;;;;;;23.80;14.48;;;1.30;95.00;;;;;;5055334;28;20029;-68
2023/01/30 05:33:39;;;;;;;24.75;15.05;;;1.30;94.80;;;;;;5055732;28;20109;-67
2023/01/30 05:36:05;;;;;;;26.05;15.50;;;1.30;94.80;;;;;;5055302;28;20025;-66
2023/01/30 05:38:31;;;;;;;25.45;15.30;;;1.40;94.60;;;;;;5055743;28;20070;-66
2023/01/30 05:41:04;;;;;;;25.77;14.23;;;1.40;94.50;;;;;;5053948;28;20045;-66
2023/01/30 05:43:30;;;;;;;24.60;14.85;;;1.40;94.40;;;;;;5054342;28;20040;-66
2023/01/30 05:45:57;;;;;;;24.98;15.32;;;1.40;94.50;;;;;;5053679;28;20029;-66
2023/01/30 05:48:24;;;;;;;25.30;15.27;;;1.30;94.50;;;;;;5054142;28;20057;-67
2023/01/30 05:50:50;;;;;;;24.20;15.23;;;1.40;94.50;;;;;;5054001;28;20033;-67
2023/01/30 05:53:17;;;;;;;27.98;16.52;;;1.30;94.50;;;;;;5053476;28;20111;-67
2023/01/30 05:55:43;;;;;;;28.60;16.35;;;1.30;94.80;;;;;;5053715;28;20434;-67
2023/01/30 05:58:09;;;;;;;27.50;15.38;;;1.30;94.80;;;;;;5053185;28;20090;-66
2023/01/30 06:00:35;;;;;;;23.85;15.18;;;1.30;94.70;;;;;;5053634;28;20393;-66
2023/01/30 06:03:00;;;;;;;25.83;14.65;;;1.40;94.40;;;;;;5053545;28;20036;-67
2023/01/30 06:05:26;;;;;;;24.10;14.45;;;1.40;94.40;;;;;;5053656;28;20025;-67
2023/01/30 06:07:52;;;;;;;25.02;15.45;;;1.40;94.20;;;;;;5054176;28;20034;-67
2023/01/30 06:10:17;;;;;;;25.58;15.07;;;1.40;94.00;;;;;;5053678;28;20355;-67
2023/01/30 06:12:43;;;;;;;23.27;13.60;;;1.40;94.20;;;;;;5053824;28;20044;-67
2023/01/30 06:15:09;;;;;;;22.75;14.48;;;1.40;94.00;;;;;;5053318;28;20040;-67
2023/01/30 06:17:35;;;;;;;21.30;13.45;;;1.40;94.00;;;;;;5056877;28;20489;-68
2023/01/30 06:20:00;;;;;;;23.30;13.63;;;1.40;93.80;;;;;;5073131;28;20059;-67
2023/01/30 06:22:26;;;;;;;23.50;13.85;;;1.40;93.80;;;;;;5074145;28;20060;-67
2023/01/30 06:24:52;;;;;;;20.42;12.80;;;1.40;93.70;;;;;;5073538;28;20063;-66
2023/01/30 06:27:18;;;;;;;18.80;12.60;;;1.50;93.40;;;;;;5071579;28;20039;-66
2023/01/30 06:29:43;;;;;;;20.95;13.02;;;1.60;93.10;;;;;;5073441;28;20047;-66
2023/01/30 06:32:09;;;;;;;24.25;13.68;;;1.60;92.80;;;;;;5072833;28;20461;-67
2023/01/30 06:34:35;;;;;;;21.33;12.48;;;1.50;92.90;;;;;;5073316;28;20033;-67
2023/01/30 06:37:01;;;;;;;22.77;12.88;;;1.50;92.80;;;;;;5073043;28;20029;-68
2023/01/30 06:39:26;;;;;;;22.88;13.13;;;1.50;92.50;;;;;;5073300;28;20035;-68
2023/01/30 06:41:52;;;;;;;19.75;12.63;;;1.60;92.40;;;;;;5034824;28;1121971;-67
2023/01/30 06:44:18;;;;;;;21.50;12.85;;;1.50;92.40;;;;;;5073870;28;20033;-68
2023/01/30 06:46:43;;;;;;;21.63;13.20;;;1.60;92.30;;;;;;5074253;28;20052;-68
2023/01/30 06:49:10;;;;;;;19.60;12.02;;;1.60;92.10;;;;;;5073743;28;20040;-68
2023/01/30 06:51:35;;;;;;;18.58;11.88;;;1.60;92.10;;;;;;5074097;28;20058;-66
2023/01/30 06:54:01;;;;;;;20.92;12.25;;;1.60;91.70;;;;;;5072437;28;20048;-67
2023/01/30 06:56:26;;;;;;;19.90;12.57;;;1.60;91.50;;;;;;5074300;28;20028;-67
2023/01/30 06:58:52;;;;;;;22.30;12.63;;;1.70;91.70;;;;;;5073711;28;20465;-67
2023/01/30 07:01:20;;;;;;;20.23;11.82;;;1.70;91.20;;;;;;5073981;28;20029;-68
2023/01/30 07:03:46;;;;;;;22.45;13.20;;;1.70;91.00;;;;;;5089525;28;20028;-68
2023/01/30 07:06:11;;;;;;;22.45;12.80;;;1.70;91.00;;;;;;5093755;28;20020;-68
2023/01/30 07:08:37;;;;;;;20.35;11.55;;;1.70;90.80;;;;;;5093829;28;20030;-68
2023/01/30 07:11:04;;;;;;;18.63;11.40;;;1.70;90.50;;;;;;5092719;28;20043;-67
2023/01/30 07:13:29;;;;;;;18.15;11.13;;;1.80;89.90;;;;;;5093909;28;20028;-67
2023/01/30 07:15:55;;;;;;;20.40;11.75;;;1.80;89.20;;;;;;5093596;28;20031;-67
2023/01/30 07:18:21;;;;;;;19.52;11.45;;;1.90;88.80;;;;;;5093488;28;20020;-67
2023/01/30 07:20:48;;;;;;;20.20;11.15;;;1.90;88.80;;;;;;5093812;28;20032;-67
2023/01/30 07:23:13;;;;;;;19.13;10.55;;;1.90;88.30;;;;;;5093748;28;20114;-66
2023/01/30 07:25:39;;;;;;;16.35;10.40;;;2.00;87.10;;;;;;5093830;28;20048;-66
2023/01/30 07:28:05;;;;;;;19.40;10.32;;;2.00;86.80;;;;;;5093421;28;20028;-67
2023/01/30 07:30:32;;;;;;;16.80;9.27;;;2.00;87.00;;;;;;5092252;28;20035;-67
2023/01/30 07:32:59;;;;;;;15.20;9.80;;;2.10;86.60;;;;;;5093527;28;20415;-66
2023/01/30 07:35:26;;;;;;;20.17;10.38;;;2.10;85.70;;;;;;5093491;28;20019;-67
2023/01/30 07:37:52;;;;;;;17.15;9.57;;;2.10;85.40;;;;;;5093455;28;20055;-67
2023/01/30 07:40:19;;;;;;;15.68;9.02;;;2.20;84.50;;;;;;5093017;28;20087;-66
2023/01/30 07:43:02;;;;;;;18.02;9.25;;;2.20;83.50;;;;;;5092177;28;20040;-67
2023/01/30 07:45:47;;;;;;;17.67;9.85;;;2.30;83.30;;;;;;5093273;28;20028;-68
2023/01/30 07:48:17;;;;;;;15.80;9.77;;;2.30;83.10;;;;;;5093011;28;20032;-67
2023/01/30 07:50:44;;;;;;;21.75;10.20;;;2.40;83.70;;;;;;5093357;28;20480;-67
2023/01/30 07:53:12;;;;;;;15.45;10.15;;;2.40;83.70;;;;;;5092364;28;20493;-67
2023/01/30 07:55:38;;;;;;;14.45;10.07;;;2.40;83.00;;;;;;5091629;28;20024;-67
2023/01/30 07:58:04;;;;;;;16.65;10.00;;;2.50;82.20;;;;;;5092589;28;20031;-67
2023/01/30 08:00:30;;;;;;;16.95;11.10;;;2.50;81.90;;;;;;5091974;28;20032;-67
2023/01/30 08:02:56;;;;;;;18.85;11.23;;;2.50;82.00;;;;;;5093096;28;20016;-67
2023/01/30 08:05:22;;;;;;;20.55;10.82;;;2.60;82.10;;;;;;5092342;28;20525;-67
2023/01/30 08:07:48;;;;;;;16.48;9.98;;;2.60;82.20;;;;;;5092809;28;20071;-67
2023/01/30 08:10:14;;;;;;;17.45;10.73;;;2.70;81.70;;;;;;5090985;28;20389;-68
2023/01/30 08:12:40;;;;;;;22.30;11.57;;;2.70;81.10;;;;;;5092830;28;20165;-68
2023/01/30 08:15:08;;;;;;;18.02;11.07;;;2.80;81.10;;;;;;5092171;28;20365;-67
2023/01/30 08:17:33;;;;;;;19.08;11.18;;;2.80;80.60;;;;;;5072880;28;20032;-67
2023/01/30 08:19:59;;;;;;;20.55;10.90;;;2.90;80.10;;;;;;5072620;28;20594;-66
2023/01/30 08:22:25;;;;;;;18.17;11.52;;;2.90;80.10;;;;;;5073010;28;20059;-68
2023/01/30 08:24:50;;;;;;;18.58;10.85;;;2.90;80.00;;;;;;5080526;28;20031;-66
2023/01/30 08:27:16;;;;;;;19.55;10.95;;;2.90;79.90;;;;;;5078951;28;20031;-67
2023/01/30 08:29:43;;;;;;;16.45;10.07;;;2.90;79.90;;;;;;5072359;28;20094;-67
2023/01/30 08:32:09;;;;;;;21.15;11.45;;;2.90;79.00;;;;;;5072028;28;20037;-67
2023/01/30 08:34:34;;;;;;;17.10;10.90;;;3.00;78.30;;;;;;5072509;28;20342;-67
2023/01/30 08:37:01;;;;;;;17.42;10.63;;;3.00;78.30;;;;;;5072448;28;20029;-66
2023/01/30 08:39:26;;;;;;;20.65;11.15;;;3.00;77.80;;;;;;5072140;28;20029;-67
2023/01/30 08:41:52;;;;;;;16.02;10.25;;;3.10;77.90;;;;;;5072648;28;20051;-67
2023/01/30 08:44:17;;;;;;;19.23;10.70;;;3.20;77.30;;;;;;5072023;28;20457;-67
2023/01/30 08:46:43;;;;;;;17.15;10.63;;;3.20;76.90;;;;;;5072388;28;20027;-67
2023/01/30 08:49:09;;;;;;;17.23;9.63;;;3.30;76.40;;;;;;5071490;28;20024;-67
2023/01/30 08:51:35;;;;;;;17.63;9.90;;;3.40;76.00;;;;;;5072317;28;20358;-67
2023/01/30 08:54:00;;;;;;;16.95;10.55;;;3.50;75.70;;;;;;5072336;28;20035;-67
2023/01/30 08:56:26;;;;;;;16.98;10.07;;;3.60;74.50;;;;;;5072059;28;20031;-67
2023/01/30 08:58:52;;;;;;;15.40;9.75;;;3.70;73.80;;;;;;5072427;28;20028;-67
2023/01/30 09:01:17;;;;;;;17.80;9.23;;;3.70;73.40;;;;;;5071489;28;20104;-69
2023/01/30 09:03:43;;;;;;;14.48;8.23;;;3.80;72.00;;;;;;5074715;28;20112;-67
2023/01/30 09:06:08;;;;;;;14.15;8.40;;;3.80;71.40;;;;;;5070497;28;20060;-67
2023/01/30 09:08:34;;;;;;;13.07;8.45;;;3.90;71.70;;;;;;5070864;28;20025;-67
2023/01/30 09:11:03;;;;;;;15.25;9.00;;;3.90;71.50;;;;;;5072126;28;20115;-67
2023/01/30 09:13:29;;;;;;;15.18;8.73;;;3.90;71.00;;;;;;5071689;28;20024;-66
2023/01/30 09:15:56;;;;;;;20.75;8.63;;;3.90;71.50;;;;;;5072085;28;20032;-66
2023/01/30 09:18:22;;;;;;;12.45;7.57;;;3.90;71.90;;;;;;5071451;28;20028;-66
2023/01/30 09:20:48;;;;;;;13.13;7.88;;;3.80;71.50;;;;;;5072331;28;20048;-67
2023/01/30 09:23:13;;;;;;;13.02;7.88;;;3.80;71.60;;;;;;5071705;28;20024;-68
2023/01/30 09:25:40;;;;;;;12.27;7.75;;;3.70;71.30;;;;;;5071811;28;20103;-67
2023/01/30 09:28:06;;;;;;;16.27;8.52;;;3.70;72.30;;;;;;5071893;28;20032;-67
2023/01/30 09:30:32;;;;;;;13.80;8.68;;;3.70;72.10;;;;;;5071382;28;20131;-67
2023/01/30 09:32:58;;;;;;;14.13;8.25;;;3.70;72.50;;;;;;5072213;28;20025;-67
2023/01/30 09:35:24;;;;;;;14.32;8.10;;;3.80;72.40;;;;;;5075286;28;20036;-67
2023/01/30 09:37:53;;;;;;;15.82;7.70;;;3.80;71.60;;;;;;5075379;28;20032;-67
2023/01/30 09:40:30;;;;;;;12.30;7.53;;;3.80;70.90;;;;;;5075367;28;20051;-67
2023/01/30 09:43:30;;;;;;;13.35;7.75;;;3.80;70.80;;;;;;5075545;28;20025;-67
2023/01/30 09:46:16;;;;;;;12.77;6.90;;;3.80;70.50;;;;;;5075354;28;20047;-69
2023/01/30 09:48:53;;;;;;;12.82;8.02;;;3.80;70.30;;;;;;5075503;28;20491;-67
2023/01/30 09:52:00;;;;;;;9.93;6.55;;;3.80;70.10;;;;;;5075056;28;20052;-67
2023/01/30 09:54:31;;;;;;;11.32;6.28;;;3.80;69.70;;;;;;5052586;28;20025;-67
2023/01/30 09:57:17;;;;;;;13.60;7.00;;;3.80;70.60;;;;;;5053077;28;20436;-66
2023/01/30 10:00:17;;;;;;;11.32;6.38;;;3.80;70.90;;;;;;5052744;28;20039;-67
2023/01/30 10:02:58;;;;;;;10.95;6.10;;;3.90;70.40;;;;;;5039515;28;20048;-67
2023/01/30 10:05:34;;;;;;;7.63;5.68;;;4.00;70.30;;;;;;5052310;28;20044;-67
2023/01/30 10:08:14;;;;;;;10.13;6.07;;;4.10;71.40;;;;;;5052805;28;20029;-67
2023/01/30 10:10:57;;;;;;;8.93;5.43;;;4.30;71.00;;;;;;5052582;28;20048;-67
2023/01/30 10:13:45;;;;;;;9.20;5.38;;;4.60;70.30;;;;;;5050214;28;20543;-68
2023/01/30 10:16:18;;;;;;;8.38;5.07;;;4.80;69.90;;;;;;5011346;28;20045;-70
2023/01/30 10:18:43;;;;;;;7.25;4.78;;;5.00;69.50;;;;;;5013104;28;20121;-66
2023/01/30 10:21:30;;;;;;;7.05;4.53;;;5.30;69.40;;;;;;5012800;28;20113;-67
2023/01/30 10:24:02;;;;;;;7.38;4.40;;;5.40;69.90;;;;;;5012916;28;20439;-67
2023/01/30 10:26:28;;;;;;;10.30;4.80;;;5.50;70.30;;;;;;5054054;28;20544;-67
2023/01/30 10:29:11;;;;;;;7.43;4.85;;;5.50;70.40;;;;;;5054619;28;20230;-66
2023/01/30 10:32:00;;;;;;;9.05;5.00;;;5.50;71.00;;;;;;5054659;28;20033;-67
2023/01/30 10:34:31;;;;;;;6.70;4.25;;;5.40;71.50;;;;;;5053889;28;20512;-68
2023/01/30 10:37:08;;;;;;;7.57;4.95;;;5.30;71.80;;;;;;5054641;28;20425;-68
2023/01/30 10:39:43;;;;;;;8.73;4.43;;;5.20;72.10;;;;;;5053838;28;20040;-67
2023/01/30 10:42:09;;;;;;;9.30;4.40;;;5.10;72.90;;;;;;5054447;28;20040;-66
2023/01/30 10:44:35;;;;;;;6.28;4.15;;;5.00;73.40;;;;;;5052911;28;20035;-67
2023/01/30 10:47:00;;;;;;;6.72;4.05;;;4.90;73.60;;;;;;5054088;28;20470;-66
2023/01/30 10:49:41;;;;;;;7.47;4.45;;;4.90;74.10;;;;;;5053699;28;20029;-66
2023/01/30 10:52:43;;;;;;;8.27;4.38;;;4.80;74.00;;;;;;5054185;28;20090;-67
2023/01/30 10:55:19;;;;;;;8.45;3.92;;;4.70;74.30;;;;;;5054291;28;20408;-67
2023/01/30 10:58:10;;;;;;;8.27;3.38;;;4.70;74.40;;;;;;5054112;28;20032;-68
2023/01/30 11:00:42;;;;;;;8.20;3.90;;;4.80;74.80;;;;;;5052197;28;20033;-67
2023/01/30 11:03:26;;;;;;;5.57;3.83;;;4.70;74.80;;;;;;5053904;28;20044;-66
2023/01/30 11:05:57;;;;;;;5.90;3.88;;;4.70;74.80;;;;;;5054044;28;20381;-67
2023/01/30 11:08:28;;;;;;;7.00;3.22;;;4.70;74.70;;;;;;5061523;28;20024;-67
2023/01/30 11:10:55;;;;;;;;;;;4.80;73.70;;;;;;5074265;28;20039;-67
2023/01/30 11:13:38;;;;;;;5.85;3.63;;;4.80;72.40;;;;;;5073326;28;19912;-67
2023/01/30 11:16:07;;;;;;;4.57;3.13;;;5.00;72.50;;;;;;5073715;28;20115;-68
2023/01/30 11:18:42;;;;;;;8.30;3.42;;;5.10;71.70;;;;;;5073095;28;20021;-67
2023/01/30 11:21:15;;;;;;;6.50;3.00;;;5.20;71.10;;;;;;5073485;28;20591;-67
2023/01/30 11:23:42;;;;;;;5.63;3.50;;;5.40;70.60;;;;;;5073267;28;20556;-66
2023/01/30 11:26:18;;;;;;;4.70;3.20;;;5.50;69.00;;;;;;5073803;28;20032;-67
2023/01/30 11:28:45;;;;;;;5.30;3.05;;;5.60;68.60;;;;;;5073331;28;20499;-67
2023/01/30 11:31:16;;;;;;;6.68;3.17;;;5.60;67.30;;;;;;5073235;28;20040;-67
2023/01/30 11:33:41;;;;;;;4.22;3.08;;;5.70;66.50;;;;;;5073163;28;20021;-67
2023/01/30 11:36:29;;;;;;;7.22;2.90;;;5.70;66.60;;;;;;5073240;28;20039;-67
2023/01/30 11:39:00;;;;;;;5.25;3.08;;;5.60;66.10;;;;;;5073248;28;20112;-66
2023/01/30 11:41:27;;;;;;;8.43;2.80;;;5.60;66.60;;;;;;5073261;28;20041;-67
2023/01/30 11:44:00;;;;;;;6.05;3.17;;;5.60;66.60;;;;;;5073544;28;20063;-67
2023/01/30 11:46:36;;;;;;;9.00;2.88;;;5.60;66.80;;;;;;5076188;28;20032;-67
2023/01/30 11:49:22;;;;;;;4.07;2.70;;;5.80;66.00;;;;;;5074569;28;20138;-67
2023/01/30 11:51:53;;;;;;;3.80;2.17;;;5.90;65.40;;;;;;5073111;28;20040;-67
2023/01/30 11:54:32;;;;;;;3.85;2.67;;;5.90;64.80;;;;;;5072890;28;20469;-68
2023/01/30 11:57:01;;;;;;;5.95;2.92;;;5.90;64.50;;;;;;5072728;28;20035;-66
2023/01/30 11:59:41;;;;;;;6.13;2.80;;;6.00;64.20;;;;;;5071256;28;20397;-67
2023/01/30 12:02:31;;;;;;;4.30;2.65;;;6.10;64.50;;;;;;5073012;28;20111;-67
2023/01/30 12:05:06;;;;;;;6.82;3.20;;;6.20;64.30;;;;;;5072953;28;20078;-68
2023/01/30 12:07:34;;;;;;;4.13;2.50;;;6.30;64.80;;;;;;5072521;28;20020;-68
2023/01/30 12:10:16;;;;;;;4.55;2.72;;;6.40;64.00;;;;;;5072023;28;20032;-68
2023/01/30 12:12:50;;;;;;;5.60;2.70;;;6.40;63.60;;;;;;5052434;28;20017;-67
2023/01/30 12:15:19;;;;;;;4.53;2.55;;;6.60;63.70;;;;;;5052387;28;20435;-66
2023/01/30 12:17:50;;;;;;;4.07;2.58;;;6.70;63.30;;;;;;5052649;28;20378;-67
2023/01/30 12:20:50;;;;;;;3.90;2.70;;;6.70;63.30;;;;;;5052660;28;20060;-67
2023/01/30 12:23:37;;;;;;;3.42;2.20;;;6.90;63.40;;;;;;5052721;28;20047;-66
2023/01/30 12:26:17;;;;;;;5.13;2.67;;;7.00;62.70;;;;;;5052532;28;20033;-67
2023/01/30 12:29:01;;;;;;;4.05;2.92;;;6.90;62.50;;;;;;5051828;28;20436;-66
2023/01/30 12:31:36;;;;;;;5.63;2.97;;;6.70;62.80;;;;;;5052039;28;20179;-66
2023/01/30 12:34:02;;;;;;;5.82;2.95;;;6.60;63.40;;;;;;5052510;28;20105;-67
2023/01/30 12:36:55;;;;;;;6.75;2.80;;;6.50;64.10;;;;;;5052071;28;20029;-67
2023/01/30 12:39:43;;;;;;;5.45;3.10;;;6.30;65.10;;;;;;5052794;28;20142;-67
2023/01/30 12:42:16;;;;;;;5.78;3.05;;;6.30;65.60;;;;;;5052285;28;20382;-67
2023/01/30 12:44:55;;;;;;;6.15;2.85;;;6.20;66.20;;;;;;5052061;28;20385;-66
2023/01/30 12:47:56;;;;;;;4.72;2.95;;;6.00;67.10;;;;;;5051339;28;20032;-68
2023/01/30 12:50:27;;;;;;;7.03;3.50;;;5.90;67.90;;;;;;5047823;28;20049;-73
2023/01/30 12:53:14;;;;;;;6.55;4.10;;;5.90;69.20;;;;;;5051861;28;20030;-66
2023/01/30 12:56:01;;;;;;;5.57;3.97;;;5.80;70.00;;;;;;5051944;28;20117;-67
2023/01/30 12:58:31;;;;;;;7.85;3.75;;;5.70;71.50;;;;;;5051552;28;20017;-67
2023/01/30 13:01:26;;;;;;;7.05;3.75;;;5.60;71.30;;;;;;5052188;28;20212;-67
2023/01/30 13:04:29;;;;;;;7.47;3.97;;;5.50;71.80;;;;;;5052370;28;20126;-67
2023/01/30 13:07:07;;;;;;;5.97;3.67;;;5.40;72.30;;;;;;5051740;28;20484;-67